This is the latest recevied weather packets stored in our database for station/object DOUGLAS. If no packets are shown the sender has not sent any weather packets the latest 10 day(s).
| Time | Temp. | Humidity | Pressure | Rain* | Wind** | Luminosity | Snow |
|---|---|---|---|---|---|---|---|
| 1777515603 | 11.11° C | 94% | 0 hPa | - | - | - | - |
| 1777515003 | 11.11° C | 93% | 0 hPa | - | - | - | - |
| 1777514408 | 11.67° C | 92% | 0 hPa | - | - | - | - |
| 1777513803 | 11.67° C | 90% | 0 hPa | - | - | - | - |
| 1777513203 | 12.22° C | 88% | 0 hPa | - | - | - | - |
| 1777512604 | 12.78° C | 86% | 0 hPa | - | - | - | - |
| 1777512003 | 13.89° C | 82% | 0 hPa | - | - | - | - |
| 1777511402 | 14.44° C | 79% | 0 hPa | - | - | - | - |
| 1777510803 | 15° C | 75% | 0 hPa | - | - | - | - |
| 1777510203 | 15° C | 75% | 0 hPa | - | - | - | - |
| 1777509603 | 15.56° C | 71% | 0 hPa | - | - | - | - |
| 1777509003 | 15.56° C | 72% | 0 hPa | - | - | - | - |
| 1777508403 | 15.56° C | 70% | 0 hPa | - | - | - | - |
| 1777507803 | 15.56° C | 69% | 0 hPa | - | - | - | - |
| 1777507204 | 15.56° C | 70% | 0 hPa | - | - | - | - |
| 1777506603 | 15.56° C | 68% | 0 hPa | - | - | - | - |
| 1777506003 | 16.67° C | 65% | 0 hPa | - | - | - | - |
| 1777505403 | 16.11° C | 65% | 0 hPa | - | - | - | - |
| 1777504803 | 16.67° C | 64% | 0 hPa | - | - | - | - |
| 1777504203 | 15.56° C | 66% | 0 hPa | - | - | - | - |
| 1777503604 | 15.56° C | 67% | 0 hPa | - | - | - | - |
| 1777503003 | 15° C | 67% | 0 hPa | - | - | - | - |
| 1777502403 | 15.56° C | 69% | 0 hPa | - | - | - | - |
| 1777501803 | 15° C | 69% | 0 hPa | - | - | - | - |
| 1777501203 | 15.56° C | 66% | 0 hPa | - | - | - | - |
* Rain since midnight (hover to see other rain measurements)
** Current wind speed in m/s (hover to see current wind gust speed)